Time;durP1;ratioP1;P1;durP2;ratioP2;P2;SDS_P1;SDS_P2;PMS_P1;PMS_P2;Temp;Humidity;BMP_temperature;BMP_pressure;BME280_temperature;BME280_humidity;BME280_pressure;Samples;Min_cycle;Max_cycle;Signal;HPM_P1;HPM_P2
2020/12/22 00:01:20;;;;;;;2.67;2.30;;;;;;;7.95;87.85;99775.78;5058704;28;20207;-78
2020/12/22 00:03:47;;;;;;;3.07;2.77;;;;;;;8.01;87.93;99777.41;5055653;28;20248;-78
2020/12/22 00:06:22;;;;;;;1.97;1.80;;;;;;;7.99;88.36;99763.59;5053701;28;20216;-76
2020/12/22 00:08:48;;;;;;;2.60;2.40;;;;;;;8.02;88.68;99757.47;5051239;28;20755;-77
2020/12/22 00:11:14;;;;;;;2.27;1.80;;;;;;;8.00;88.82;99760.09;5061798;28;20208;-78
2020/12/22 00:13:40;;;;;;;1.80;1.70;;;;;;;7.99;88.85;99766.19;5056711;28;20807;-77
2020/12/22 00:16:05;;;;;;;2.00;1.43;;;;;;;8.04;88.79;99761.75;5060982;28;20207;-77
2020/12/22 00:18:31;;;;;;;1.20;1.20;;;;;;;8.06;89.13;99759.13;5066133;28;20269;-77
2020/12/22 00:20:57;;;;;;;1.30;1.20;;;;;;;8.06;88.29;99744.38;5061237;28;20207;-78
2020/12/22 00:23:24;;;;;;;1.43;1.33;;;;;;;8.08;88.51;99742.59;5060133;28;20604;-77
2020/12/22 00:25:50;;;;;;;1.97;1.67;;;;;;;8.07;88.93;99740.91;5061442;28;20208;-77
2020/12/22 00:28:16;;;;;;;1.10;1.00;;;;;;;8.02;89.58;99747.06;5060079;28;20228;-76
2020/12/22 00:30:43;;;;;;;1.30;1.20;;;;;;;8.07;88.83;99727.91;5056765;28;20224;-77
2020/12/22 00:33:11;;;;;;;1.43;1.33;;;;;;;8.11;89.47;99739.09;5063970;28;20229;-78
2020/12/22 00:35:38;;;;;;;1.07;1.07;;;;;;;8.08;89.11;99724.41;5065320;28;20199;-77
2020/12/22 00:38:04;;;;;;;1.73;1.43;;;;;;;8.09;89.35;99715.72;5057564;28;20267;-77
2020/12/22 00:40:31;;;;;;;1.20;1.10;;;;;;;8.15;89.65;99719.94;5059447;28;20197;-78
2020/12/22 00:43:00;;;;;;;1.10;1.10;;;;;;;8.15;89.64;99718.19;5064737;28;20200;-76
2020/12/22 00:45:26;;;;;;;1.63;1.10;;;;;;;8.19;89.49;99713.81;5060761;28;20205;-78
2020/12/22 00:47:52;;;;;;;1.20;1.10;;;;;;;8.17;89.22;99731.19;5064037;28;20208;-76
2020/12/22 00:50:18;;;;;;;0.90;0.90;;;;;;;8.17;89.61;99710.38;5057480;28;21769;-77
2020/12/22 00:52:44;;;;;;;0.80;0.80;;;;;;;8.18;89.02;99714.66;5060022;28;20209;-78
2020/12/22 00:55:10;;;;;;;0.80;0.80;;;;;;;8.26;89.63;99719.72;5050954;28;20245;-78
2020/12/22 00:57:37;;;;;;;1.67;1.33;;;;;;;8.27;88.81;99721.44;5064942;28;20268;-77
2020/12/22 01:00:04;;;;;;;0.90;0.90;;;;;;;8.26;89.17;99707.56;5053416;28;20201;-77
2020/12/22 01:02:30;;;;;;;0.87;0.87;;;;;;;8.30;88.97;99710.97;5053715;28;20199;-78
2020/12/22 01:04:56;;;;;;;0.80;0.80;;;;;;;8.38;88.84;99708.19;5062719;28;20252;-78
2020/12/22 01:07:22;;;;;;;0.60;0.60;;;;;;;8.38;88.57;99695.19;5064896;28;20232;-77
2020/12/22 01:09:48;;;;;;;0.70;0.70;;;;;;;8.42;88.54;99710.72;5055859;28;20268;-77
2020/12/22 01:12:14;;;;;;;1.13;0.70;;;;;;;8.37;89.06;99717.75;5059272;28;20203;-77
2020/12/22 01:14:40;;;;;;;1.27;0.77;;;;;;;8.39;89.08;99704.72;5056513;28;20250;-77
2020/12/22 01:17:06;;;;;;;1.53;0.73;;;;;;;8.40;89.06;99706.41;5057823;28;20204;-77
2020/12/22 01:19:32;;;;;;;0.93;0.70;;;;;;;8.40;89.10;99709.88;5053579;28;20210;-76
2020/12/22 01:21:58;;;;;;;0.80;0.60;;;;;;;8.43;89.99;99724.59;5058588;28;20228;-76
2020/12/22 01:24:24;;;;;;;1.13;0.80;;;;;;;8.44;89.48;99713.28;5053925;28;20272;-77
2020/12/22 01:26:51;;;;;;;0.93;0.93;;;;;;;8.47;89.70;99715.84;5053575;28;20212;-77
2020/12/22 01:29:17;;;;;;;1.03;0.83;;;;;;;8.49;89.42;99724.47;5055421;28;20228;-76
2020/12/22 01:31:46;;;;;;;1.67;0.97;;;;;;;8.46;89.58;99720.19;5056256;28;20196;-77
2020/12/22 01:34:11;;;;;;;1.10;0.70;;;;;;;8.46;89.55;99711.50;5054477;28;20705;-78
2020/12/22 01:36:37;;;;;;;0.93;0.93;;;;;;;8.46;90.10;99696.78;5055046;28;20263;-77
2020/12/22 01:39:03;;;;;;;0.73;0.73;;;;;;;8.47;89.70;99674.22;5057107;28;20226;-77
2020/12/22 01:41:32;;;;;;;0.70;0.70;;;;;;;8.47;90.42;99682.03;5049347;28;20195;-78
2020/12/22 01:44:03;;;;;;;0.93;0.60;;;;;;;8.48;90.38;99686.31;5051829;28;20229;-77
2020/12/22 01:46:32;;;;;;;0.50;0.50;;;;;;;8.52;90.21;99673.25;5051988;28;20199;-77
2020/12/22 01:49:00;;;;;;;1.77;0.67;;;;;;;8.51;89.97;99668.91;5054186;28;20226;-78
2020/12/22 01:51:27;;;;;;;0.60;0.60;;;;;;;8.54;90.30;99663.66;5054418;28;20202;-78
2020/12/22 01:53:54;;;;;;;0.50;0.50;;;;;;;8.56;89.80;99655.78;5051073;28;20227;-77
2020/12/22 01:56:20;;;;;;;1.40;0.40;;;;;;;8.57;89.63;99656.66;5051885;28;20230;-77
2020/12/22 01:58:46;;;;;;;0.40;0.40;;;;;;;8.62;90.26;99645.25;5055152;28;20307;-77
2020/12/22 02:01:12;;;;;;;0.50;0.50;;;;;;;8.63;89.33;99646.13;5052548;28;20211;-76
2020/12/22 02:03:38;;;;;;;0.50;0.50;;;;;;;8.64;90.00;99648.69;5052530;28;20224;-78
2020/12/22 02:06:05;;;;;;;0.50;0.50;;;;;;;8.69;89.41;99659.81;5053904;28;20202;-77
2020/12/22 02:08:31;;;;;;;0.40;0.40;;;;;;;8.71;89.81;99651.97;5050862;28;20239;-77
2020/12/22 02:10:56;;;;;;;0.40;0.40;;;;;;;8.76;89.14;99644.94;5051591;28;20221;-77
2020/12/22 02:13:22;;;;;;;0.40;0.40;;;;;;;8.79;89.08;99636.19;5054246;28;20297;-77
2020/12/22 02:15:48;;;;;;;0.30;0.30;;;;;;;8.80;89.33;99628.34;5051708;28;20267;-78
2020/12/22 02:18:14;;;;;;;0.33;0.33;;;;;;;8.82;89.47;99636.97;5056101;28;20219;-76
2020/12/22 02:20:40;;;;;;;0.23;0.23;;;;;;;8.89;89.65;99637.66;5052932;28;20246;-78
2020/12/22 02:23:07;;;;;;;0.40;0.40;;;;;;;8.93;89.82;99641.91;5052919;28;20228;-77
2020/12/22 02:25:33;;;;;;;0.40;0.40;;;;;;;8.94;89.97;99628.00;5055874;28;20199;-76
2020/12/22 02:27:59;;;;;;;0.30;0.30;;;;;;;8.97;89.36;99622.72;5052138;28;20556;-77
2020/12/22 02:30:25;;;;;;;0.40;0.40;;;;;;;9.01;89.58;99620.88;5050859;28;20216;-77
2020/12/22 02:32:51;;;;;;;0.50;0.50;;;;;;;9.07;89.46;99608.56;5049656;28;20203;-77
2020/12/22 02:35:17;;;;;;;0.77;0.33;;;;;;;9.12;88.93;99617.09;5052089;28;20257;-77
2020/12/22 02:37:42;;;;;;;0.50;0.37;;;;;;;9.13;89.41;99613.59;5051055;28;20201;-78
2020/12/22 02:40:09;;;;;;;0.67;0.43;;;;;;;9.14;89.82;99599.69;5051009;28;20204;-77
2020/12/22 02:42:35;;;;;;;0.30;0.30;;;;;;;9.18;89.92;99589.19;5051474;28;20199;-78
2020/12/22 02:45:01;;;;;;;0.30;0.30;;;;;;;9.21;89.71;99591.72;5050602;28;20710;-77
2020/12/22 02:47:27;;;;;;;0.30;0.30;;;;;;;9.21;89.41;99584.75;5052662;28;20235;-78
2020/12/22 02:49:53;;;;;;;0.50;0.30;;;;;;;9.21;89.71;99574.34;5051260;28;20288;-78
2020/12/22 02:52:18;;;;;;;0.30;0.30;;;;;;;9.23;90.26;99571.69;5051806;28;20233;-77
2020/12/22 02:54:44;;;;;;;1.13;0.30;;;;;;;9.26;90.00;99556.00;5043925;28;20229;-77
2020/12/22 02:57:11;;;;;;;0.40;0.40;;;;;;;9.28;90.23;99555.06;5043737;28;21638;-77
2020/12/22 02:59:37;;;;;;;0.47;0.30;;;;;;;9.38;89.68;99550.44;5044827;28;20251;-77
2020/12/22 03:02:03;;;;;;;0.37;0.37;;;;;;;9.41;89.83;99534.72;5042741;28;20205;-77
2020/12/22 03:04:28;;;;;;;0.20;0.20;;;;;;;9.41;89.58;99532.09;5044348;28;20282;-77
2020/12/22 03:06:54;;;;;;;0.30;0.30;;;;;;;9.43;89.29;99521.66;5044030;28;20212;-77
2020/12/22 03:09:20;;;;;;;0.40;0.40;;;;;;;9.43;89.42;99537.28;5047038;28;20256;-77
2020/12/22 03:11:46;;;;;;;0.20;0.20;;;;;;;9.45;89.47;99528.50;5045290;28;20254;-78
2020/12/22 03:14:13;;;;;;;0.20;0.20;;;;;;;9.51;89.34;99532.69;5049728;28;20263;-79
2020/12/22 03:16:38;;;;;;;0.20;0.20;;;;;;;9.53;89.01;99537.00;5050788;28;20212;-78
2020/12/22 03:19:04;;;;;;;0.23;0.20;;;;;;;9.54;89.23;99533.47;5038288;28;20209;-77
2020/12/22 03:21:31;;;;;;;0.57;0.30;;;;;;;9.60;88.91;99510.75;5045513;28;20227;-78
2020/12/22 03:23:57;;;;;;;0.67;0.27;;;;;;;9.59;89.16;99512.47;5041116;28;20228;-79
2020/12/22 03:26:22;;;;;;;0.30;0.30;;;;;;;9.63;89.33;99510.63;5049111;28;20212;-78
2020/12/22 03:28:48;;;;;;;0.30;0.30;;;;;;;9.63;89.36;99532.38;5050918;28;20213;-79
2020/12/22 03:31:15;;;;;;;0.50;0.40;;;;;;;9.66;89.26;99528.81;5055666;28;20931;-77
2020/12/22 03:33:41;;;;;;;0.30;0.30;;;;;;;9.69;89.10;99523.47;5049643;28;20656;-77
2020/12/22 03:36:07;;;;;;;0.20;0.20;;;;;;;9.74;89.13;99535.47;5036665;28;20238;-77
2020/12/22 03:38:33;;;;;;;0.20;0.20;;;;;;;9.76;88.75;99530.22;5053159;28;20198;-77
2020/12/22 03:40:58;;;;;;;0.20;0.20;;;;;;;9.78;89.14;99507.56;5063193;28;20206;-76
2020/12/22 03:43:24;;;;;;;0.30;0.30;;;;;;;9.79;88.95;99527.53;5054695;28;20345;-77
2020/12/22 03:45:50;;;;;;;0.30;0.30;;;;;;;9.81;89.26;99530.06;5054195;28;20203;-77
2020/12/22 03:48:17;;;;;;;1.80;0.30;;;;;;;9.82;89.19;99523.97;5059461;28;20223;-78
2020/12/22 03:50:43;;;;;;;0.20;0.20;;;;;;;9.86;89.54;99534.25;5061617;28;20216;-78
2020/12/22 03:53:09;;;;;;;0.57;0.30;;;;;;;9.84;89.39;99528.25;5059941;28;20269;-77
2020/12/22 03:55:35;;;;;;;0.20;0.20;;;;;;;9.87;89.33;99533.38;5050808;28;20331;-77
2020/12/22 03:58:00;;;;;;;0.23;0.20;;;;;;;9.89;89.49;99530.69;5050664;28;20213;-79
2020/12/22 04:00:26;;;;;;;0.20;0.20;;;;;;;9.89;89.59;99539.38;5050953;28;20208;-79
2020/12/22 04:02:52;;;;;;;0.30;0.30;;;;;;;9.91;89.49;99532.38;5063334;28;20208;-79
2020/12/22 04:05:19;;;;;;;0.20;0.20;;;;;;;9.96;89.42;99534.81;5055483;28;20209;-80
2020/12/22 04:07:44;;;;;;;0.27;0.23;;;;;;;9.96;89.54;99528.78;5058528;28;20200;-79
2020/12/22 04:10:10;;;;;;;1.13;0.37;;;;;;;10.00;89.50;99530.38;5062922;28;20259;-79
2020/12/22 04:12:36;;;;;;;0.60;0.30;;;;;;;10.01;89.61;99522.50;5063652;28;20294;-79
2020/12/22 04:15:03;;;;;;;0.20;0.20;;;;;;;10.02;89.66;99534.63;5062297;28;20272;-79
2020/12/22 04:17:29;;;;;;;0.20;0.20;;;;;;;10.06;89.44;99532.78;5063554;28;20204;-79
2020/12/22 04:19:55;;;;;;;0.20;0.20;;;;;;;10.07;89.32;99522.31;5067169;28;20288;-79
2020/12/22 04:22:22;;;;;;;0.20;0.20;;;;;;;10.11;89.39;99523.94;5056760;28;20287;-79
2020/12/22 04:24:48;;;;;;;0.40;0.20;;;;;;;10.13;89.61;99522.13;5063683;28;20229;-80
2020/12/22 04:27:14;;;;;;;0.43;0.23;;;;;;;10.11;89.80;99516.09;5059593;28;20302;-78
2020/12/22 04:29:39;;;;;;;0.47;0.20;;;;;;;10.12;90.14;99522.16;5057682;28;20296;-80
2020/12/22 04:32:05;;;;;;;0.30;0.30;;;;;;;10.12;90.47;99522.16;5070895;28;20216;-78
2020/12/22 04:34:31;;;;;;;0.30;0.30;;;;;;;10.12;90.69;99528.22;5064703;28;20224;-79
2020/12/22 04:36:57;;;;;;;0.20;0.20;;;;;;;10.17;90.85;99527.22;5059326;28;20212;-80
2020/12/22 04:39:24;;;;;;;0.40;0.30;;;;;;;10.20;90.98;99517.53;5054847;28;20216;-79
2020/12/22 04:41:50;;;;;;;0.30;0.30;;;;;;;10.21;91.18;99521.88;5062784;28;20206;-79
2020/12/22 04:44:16;;;;;;;0.10;0.10;;;;;;;10.22;91.35;99517.50;5061202;28;20333;-78
2020/12/22 04:46:43;;;;;;;0.37;0.37;;;;;;;10.23;91.34;99533.13;5062841;28;20221;-79
2020/12/22 04:49:10;;;;;;;1.20;0.30;;;;;;;10.29;91.48;99521.63;5068324;28;20235;-79
2020/12/22 04:51:37;;;;;;;0.20;0.20;;;;;;;10.31;91.51;99509.44;5050958;28;20193;-78
2020/12/22 04:54:04;;;;;;;0.20;0.20;;;;;;;10.31;91.43;99509.44;5064078;28;20225;-79
2020/12/22 04:56:30;;;;;;;0.20;0.20;;;;;;;10.31;91.42;99525.06;5061091;28;20742;-79
2020/12/22 04:58:56;;;;;;;0.20;0.20;;;;;;;10.30;91.37;99532.03;5058056;28;20225;-79
2020/12/22 05:01:22;;;;;;;0.30;0.30;;;;;;;10.34;91.44;99524.97;5065861;28;20204;-80
2020/12/22 05:03:48;;;;;;;0.20;0.20;;;;;;;10.34;91.40;99525.81;5055943;28;20231;-80
2020/12/22 05:06:14;;;;;;;0.20;0.20;;;;;;;10.36;91.50;99523.16;5061109;28;20211;-80
2020/12/22 05:08:40;;;;;;;0.90;0.30;;;;;;;10.40;91.11;99513.47;5052056;28;20210;-79
2020/12/22 05:11:15;;;;;;;1.60;0.20;;;;;;;10.42;90.86;99520.34;5066992;28;20249;-79
2020/12/22 05:13:41;;;;;;;0.30;0.30;;;;;;;10.45;90.92;99527.22;5061399;28;20238;-79
2020/12/22 05:16:09;;;;;;;0.20;0.20;;;;;;;10.44;90.79;99521.13;5060861;28;20226;-79
2020/12/22 05:18:35;;;;;;;0.20;0.20;;;;;;;10.48;90.70;99520.13;5066939;28;20205;-80
2020/12/22 05:21:01;;;;;;;0.20;0.20;;;;;;;10.50;91.15;99520.09;5059187;28;20219;-79
2020/12/22 05:23:27;;;;;;;0.23;0.23;;;;;;;10.50;90.93;99520.09;5063839;28;20228;-79
2020/12/22 05:25:53;;;;;;;1.33;0.20;;;;;;;10.55;90.87;99531.22;5059270;28;20202;-80
2020/12/22 05:28:21;;;;;;;0.40;0.40;;;;;;;10.59;90.56;99542.44;5055194;28;20215;-80
2020/12/22 05:30:49;;;;;;;0.80;0.27;;;;;;;10.59;90.63;99525.00;5061499;28;20220;-80
2020/12/22 05:33:15;;;;;;;0.20;0.20;;;;;;;10.61;90.37;99541.47;5044776;28;20255;-80
2020/12/22 05:35:45;;;;;;;0.40;0.40;;;;;;;10.64;90.78;99528.28;5061715;28;20201;-79
2020/12/22 05:38:11;;;;;;;0.30;0.30;;;;;;;10.71;90.57;99534.19;5060787;28;20208;-80
2020/12/22 05:40:39;;;;;;;0.90;0.37;;;;;;;10.75;90.48;99538.38;5057885;28;20197;-80
2020/12/22 05:43:05;;;;;;;0.43;0.43;;;;;;;10.76;90.36;99534.84;5054469;28;20255;-80
2020/12/22 05:45:31;;;;;;;0.40;0.40;;;;;;;10.78;90.41;99532.19;5055485;28;20196;-79
2020/12/22 05:47:58;;;;;;;0.47;0.40;;;;;;;10.84;90.07;99545.03;5055493;28;20201;-79
2020/12/22 05:50:24;;;;;;;0.40;0.40;;;;;;;10.88;90.13;99541.41;5064819;28;20227;-80
2020/12/22 05:52:53;;;;;;;0.60;0.60;;;;;;;10.88;90.43;99538.81;5064543;28;20204;-80
2020/12/22 05:55:29;;;;;;;0.50;0.50;;;;;;;10.90;90.28;99542.22;5057813;28;20298;-79
2020/12/22 05:58:09;;;;;;;0.60;0.60;;;;;;;10.93;90.17;99542.13;5059886;28;20204;-78
2020/12/22 06:00:36;;;;;;;1.33;0.50;;;;;;;10.98;90.25;99535.00;5063558;28;20201;-79
2020/12/22 06:03:06;;;;;;;0.70;0.70;;;;;;;11.02;89.92;99541.81;5062808;28;20204;-79
2020/12/22 06:05:37;;;;;;;0.63;0.63;;;;;;;11.06;89.96;99535.56;5059877;28;20211;-79
2020/12/22 06:08:05;;;;;;;2.40;0.80;;;;;;;11.09;90.16;99539.81;5054288;28;20209;-79
2020/12/22 06:10:32;;;;;;;0.83;0.80;;;;;;;11.09;90.02;99542.44;5060066;28;20244;-79
2020/12/22 06:12:59;;;;;;;1.93;0.83;;;;;;;11.11;90.45;99533.63;5062700;28;20592;-79
2020/12/22 06:15:26;;;;;;;1.47;0.80;;;;;;;11.11;90.22;99533.63;5064055;28;20208;-79
2020/12/22 06:17:52;;;;;;;2.40;0.77;;;;;;;11.18;90.31;99539.50;5055188;28;20205;-78
2020/12/22 06:20:21;;;;;;;1.40;1.00;;;;;;;11.17;90.31;99536.94;5064032;28;20575;-79
2020/12/22 06:22:47;;;;;;;1.07;1.07;;;;;;;11.16;90.71;99532.59;5070623;28;20226;-79
2020/12/22 06:25:18;;;;;;;1.43;1.13;;;;;;;11.18;90.75;99544.72;5050874;28;20220;-79
2020/12/22 06:27:43;;;;;;;1.00;1.00;;;;;;;11.18;90.63;99536.88;5064068;28;20201;-79
2020/12/22 06:30:09;;;;;;;1.00;1.00;;;;;;;11.19;90.93;99540.34;5063168;28;20310;-79
2020/12/22 06:32:35;;;;;;;0.90;0.90;;;;;;;11.22;90.99;99538.47;5063932;28;20193;-79
2020/12/22 06:35:27;;;;;;;0.90;0.90;;;;;;;11.28;90.77;99540.88;5062499;28;20236;-80
2020/12/22 06:37:55;;;;;;;1.63;1.10;;;;;;;11.34;90.26;99531.97;5056434;28;20204;-79
2020/12/22 06:40:53;;;;;;;1.40;1.30;;;;;;;11.37;90.67;99538.81;5046074;28;20197;-79
2020/12/22 06:43:39;;;;;;;1.20;1.20;;;;;;;11.38;90.52;99554.44;5054224;28;20224;-79
2020/12/22 06:46:08;;;;;;;1.20;1.20;;;;;;;11.43;90.40;99539.44;5055856;28;20198;-79
2020/12/22 06:48:43;;;;;;;1.60;1.50;;;;;;;11.44;89.92;99541.16;5062441;28;20205;-79
2020/12/22 06:51:21;;;;;;;2.63;1.90;;;;;;;11.46;90.03;99547.19;5055839;28;20224;-79
2020/12/22 06:53:48;;;;;;;2.00;1.90;;;;;;;11.48;90.05;99547.97;5063437;28;20229;-79
2020/12/22 06:56:14;;;;;;;2.40;2.20;;;;;;;11.52;90.17;99557.41;5048786;28;20201;-79
2020/12/22 06:58:41;;;;;;;2.10;1.90;;;;;;;11.58;89.80;99558.09;5057341;28;20216;-79
2020/12/22 07:01:28;;;;;;;2.90;2.63;;;;;;;11.64;89.60;99560.47;5057526;28;20216;-79
2020/12/22 07:04:10;;;;;;;3.00;2.80;;;;;;;11.67;89.30;99555.13;5043621;28;20236;-79
2020/12/22 07:06:43;;;;;;;3.47;3.27;;;;;;;11.77;89.21;99569.53;5055580;28;20202;-79
2020/12/22 07:09:13;;;;;;;5.00;4.70;;;;;;;11.86;89.03;99563.97;5059263;28;20295;-79
2020/12/22 07:11:39;;;;;;;6.07;5.73;;;;;;;12.02;88.49;99579.13;5061726;28;20216;-79
2020/12/22 07:14:06;;;;;;;6.73;6.23;;;;;;;12.10;87.94;99579.66;5049681;28;20232;-80
2020/12/22 07:16:34;;;;;;;6.93;6.47;;;;;;;12.08;88.27;99579.72;5061222;28;20198;-79
2020/12/22 07:19:03;;;;;;;6.50;6.00;;;;;;;12.08;88.34;99574.47;5049619;28;20274;-79
2020/12/22 07:21:32;;;;;;;5.53;5.13;;;;;;;12.15;87.54;99584.69;5058376;28;20200;-80
2020/12/22 07:24:00;;;;;;;4.50;4.20;;;;;;;12.22;87.16;99592.25;5064330;28;20600;-80
2020/12/22 07:26:29;;;;;;;4.67;4.37;;;;;;;12.25;87.44;99586.03;5056752;28;20255;-81
2020/12/22 07:28:56;;;;;;;4.40;4.20;;;;;;;12.26;87.36;99590.38;5046341;28;20209;-80
2020/12/22 07:31:23;;;;;;;4.77;4.37;;;;;;;12.28;87.67;99594.63;5054367;28;20591;-81
2020/12/22 07:34:46;;;;;;;3.60;3.40;;;;;;;12.29;87.76;99600.75;5054458;28;20725;-80
2020/12/22 07:37:13;;;;;;;2.60;2.40;;;;;;;12.30;87.58;99605.03;5046743;28;20391;-82
2020/12/22 07:39:39;;;;;;;2.17;2.00;;;;;;;12.31;87.35;99612.00;5048532;28;20200;-81
2020/12/22 07:42:11;;;;;;;2.87;2.73;;;;;;;12.30;87.38;99633.81;5052730;28;20278;-81
2020/12/22 07:44:37;;;;;;;3.03;2.93;;;;;;;12.33;87.32;99628.50;5043747;28;20225;-80
2020/12/22 07:47:04;;;;;;;3.80;3.50;;;;;;;12.30;87.36;99624.19;5049529;28;20213;-80
2020/12/22 07:49:30;;;;;;;4.50;4.10;;;;;;;12.24;87.92;99629.69;5047364;28;20198;-81
2020/12/22 07:51:59;;;;;;;4.53;4.20;;;;;;;12.19;88.00;99622.91;5047990;28;20191;-80
2020/12/22 07:54:26;;;;;;;3.60;3.30;;;;;;;12.13;88.67;99626.66;5052519;28;20233;-80
2020/12/22 07:56:56;;;;;;;2.70;2.50;;;;;;;12.10;88.64;99638.06;5049649;28;20209;-79
2020/12/22 07:59:23;;;;;;;2.50;2.30;;;;;;;12.07;89.39;99640.81;5049421;28;20205;-81
2020/12/22 08:01:51;;;;;;;2.77;2.40;;;;;;;12.05;89.66;99636.53;5049623;28;20202;-81
2020/12/22 08:04:18;;;;;;;2.40;2.13;;;;;;;12.00;90.12;99651.56;5044619;28;20221;-81
2020/12/22 08:06:53;;;;;;;4.37;4.07;;;;;;;11.87;90.87;99651.13;5047187;28;20205;-81
2020/12/22 08:09:24;;;;;;;3.33;3.07;;;;;;;11.71;91.38;99656.94;5046115;28;20200;-80
2020/12/22 08:11:58;;;;;;;3.00;2.73;;;;;;;11.71;91.71;99664.78;5053293;28;20204;-81
2020/12/22 08:14:26;;;;;;;2.70;2.50;;;;;;;11.71;92.15;99654.31;5049745;28;20235;-80
2020/12/22 08:16:55;;;;;;;2.33;2.13;;;;;;;11.68;92.13;99661.41;5049252;28;20211;-80
2020/12/22 08:19:22;;;;;;;2.47;2.30;;;;;;;11.65;92.32;99658.88;5049581;28;20206;-80
2020/12/22 08:21:50;;;;;;;3.60;3.00;;;;;;;11.60;92.77;99666.91;5052461;28;20213;-80
2020/12/22 08:24:17;;;;;;;2.83;2.63;;;;;;;11.60;93.13;99659.06;5060860;28;20840;-79
2020/12/22 08:26:45;;;;;;;3.77;3.47;;;;;;;11.68;92.52;99661.41;5047937;28;20270;-80
2020/12/22 08:29:13;;;;;;;3.83;3.53;;;;;;;11.79;92.20;99655.78;5046994;28;20211;-80
2020/12/22 08:31:54;;;;;;;5.60;5.20;;;;;;;11.89;91.62;99667.63;5046786;28;20291;-81
2020/12/22 08:34:20;;;;;;;5.53;5.13;;;;;;;11.97;91.36;99668.22;5044056;28;20228;-79
2020/12/22 08:36:47;;;;;;;5.67;5.27;;;;;;;11.98;91.35;99680.38;5050337;28;20205;-80
2020/12/22 08:39:18;;;;;;;6.93;6.53;;;;;;;11.98;91.00;99677.75;5045386;28;20201;-80
2020/12/22 08:41:52;;;;;;;6.30;5.90;;;;;;;12.05;91.21;99675.75;5048394;28;20204;-80
2020/12/22 08:47:54;;;;;;;4.57;4.10;;;;;;;12.00;91.47;99693.41;5040834;28;20208;-83
2020/12/22 08:50:21;;;;;;;3.87;3.67;;;;;;;12.00;91.34;99709.09;5048940;28;20232;-81
2020/12/22 08:52:47;;;;;;;2.20;2.10;;;;;;;12.01;90.99;99713.41;5050023;28;20197;-81
2020/12/22 08:55:13;;;;;;;2.77;2.57;;;;;;;11.99;90.57;99721.34;5053177;28;20223;-81
2020/12/22 08:57:39;;;;;;;2.80;2.33;;;;;;;11.94;90.70;99714.56;5052102;28;20685;-81
2020/12/22 09:03:52;;;;;;;;;;;;;;;;;;;;;
2020/12/22 09:06:19;;;;;;;1.33;0.80;;;;;;;11.91;89.59;99745.16;5039215;28;20268;-81
2020/12/22 09:08:46;;;;;;;0.83;0.80;;;;;;;11.92;89.71;99744.22;5047270;28;20224;-79
2020/12/22 09:11:19;;;;;;;0.70;0.70;;;;;;;11.92;89.34;99752.06;5051446;28;20235;-80
2020/12/22 09:13:45;;;;;;;1.07;0.70;;;;;;;11.94;89.49;99746.78;5049885;28;20284;-80
2020/12/22 09:16:11;;;;;;;1.40;0.60;;;;;;;12.00;88.78;99764.03;5054240;28;20713;-79
2020/12/22 09:18:38;;;;;;;2.17;0.63;;;;;;;12.10;88.40;99765.41;5046140;28;20597;-80
2020/12/22 09:21:32;;;;;;;0.67;0.40;;;;;;;12.11;87.91;99770.59;5053024;28;20213;-81
2020/12/22 09:23:58;;;;;;;1.10;0.57;;;;;;;12.06;88.66;99763.81;5053008;28;20229;-80
2020/12/22 09:26:24;;;;;;;1.70;0.57;;;;;;;12.05;88.44;99775.16;5054067;28;20204;-80
2020/12/22 09:28:50;;;;;;;1.67;1.00;;;;;;;12.05;89.06;99778.66;5052534;28;20299;-80
2020/12/22 09:31:23;;;;;;;0.63;0.60;;;;;;;12.09;88.56;99787.22;5054830;28;20295;-80
2020/12/22 09:33:49;;;;;;;2.77;0.90;;;;;;;12.14;88.07;99777.47;5049521;28;20226;-81
2020/12/22 09:36:15;;;;;;;2.33;0.50;;;;;;;12.15;88.56;99784.41;5056651;28;20205;-81
2020/12/22 09:38:41;;;;;;;0.63;0.50;;;;;;;12.18;88.32;99781.66;5052786;28;20284;-82
2020/12/22 09:41:07;;;;;;;2.57;0.80;;;;;;;12.28;87.17;99775.19;5055472;28;20235;-80
2020/12/22 09:43:33;;;;;;;2.57;0.70;;;;;;;12.40;86.30;99775.66;5050428;28;20225;-81
2020/12/22 09:45:59;;;;;;;1.63;0.80;;;;;;;12.40;86.27;99771.25;5054240;28;20227;-80
2020/12/22 09:48:25;;;;;;;1.37;0.60;;;;;;;12.41;85.44;99772.16;5050009;28;20211;-80
2020/12/22 09:50:51;;;;;;;0.57;0.50;;;;;;;12.42;84.90;99779.06;5053238;28;20773;-80
2020/12/22 09:53:19;;;;;;;1.43;0.60;;;;;;;12.41;85.06;99783.47;5055147;28;20225;-80
2020/12/22 09:55:44;;;;;;;2.03;1.03;;;;;;;12.38;84.83;99783.56;5056093;28;20213;-82
2020/12/22 09:58:10;;;;;;;1.07;0.70;;;;;;;12.41;84.43;99793.09;5053245;28;20204;-80
2020/12/22 10:00:36;;;;;;;2.20;0.60;;;;;;;12.55;83.36;99780.31;5051538;28;20229;-80
2020/12/22 10:03:02;;;;;;;1.17;0.80;;;;;;;12.54;83.12;99796.09;5049828;28;20212;-80
2020/12/22 10:05:28;;;;;;;0.80;0.80;;;;;;;12.51;83.66;99794.44;5048352;28;20202;-80
2020/12/22 10:07:55;;;;;;;2.10;1.20;;;;;;;12.41;84.78;99799.16;5047688;28;20208;-81
2020/12/22 10:10:21;;;;;;;2.07;1.20;;;;;;;12.31;86.33;99795.19;5054061;28;20229;-80
2020/12/22 10:12:46;;;;;;;1.97;1.77;;;;;;;12.16;87.12;99811.41;5052619;28;20217;-80
2020/12/22 10:15:12;;;;;;;2.63;2.23;;;;;;;11.97;88.67;99796.38;5052939;28;20224;-80
2020/12/22 10:17:38;;;;;;;2.13;1.80;;;;;;;11.96;89.18;99791.19;5050972;28;20220;-81
2020/12/22 10:20:04;;;;;;;2.63;2.37;;;;;;;12.00;89.39;99796.25;5048589;28;20202;-81
2020/12/22 10:22:31;;;;;;;2.00;1.87;;;;;;;12.07;88.91;99786.41;5049621;28;20200;-82
2020/12/22 10:24:57;;;;;;;2.93;2.23;;;;;;;12.11;88.79;99785.44;5051695;28;20236;-81
2020/12/22 10:27:23;;;;;;;2.53;2.17;;;;;;;12.12;88.91;99780.13;5053183;28;20200;-80
2020/12/22 10:30:41;;;;;;;2.00;1.80;;;;;;;12.15;88.51;99794.88;5054851;28;20225;-80
2020/12/22 10:33:43;;;;;;;1.30;1.20;;;;;;;12.14;88.45;99803.63;5016188;28;20208;-81
2020/12/22 10:36:39;;;;;;;1.30;1.20;;;;;;;12.17;88.59;99797.41;5051498;28;20214;-82
2020/12/22 10:39:04;;;;;;;1.47;1.37;;;;;;;12.21;88.37;99797.28;5044481;28;20208;-82
2020/12/22 10:41:34;;;;;;;2.20;2.00;;;;;;;12.28;87.56;99793.50;5049254;28;20222;-80
2020/12/22 10:44:20;;;;;;;4.90;3.60;;;;;;;12.37;87.06;99808.03;5052571;28;20232;-80
2020/12/22 10:46:47;;;;;;;4.23;3.80;;;;;;;12.40;86.91;99807.91;5050710;28;20201;-80
2020/12/22 10:49:13;;;;;;;3.13;2.83;;;;;;;12.50;84.94;99793.56;5051113;28;20216;-80
2020/12/22 10:51:42;;;;;;;4.63;4.07;;;;;;;12.52;84.75;99803.97;5047225;28;20254;-81
2020/12/22 10:54:07;;;;;;;2.77;2.50;;;;;;;12.49;84.46;99815.44;5049411;28;20703;-80
2020/12/22 10:56:36;;;;;;;1.90;1.80;;;;;;;12.47;84.43;99822.50;5047919;28;20232;-83
2020/12/22 10:59:01;;;;;;;1.50;1.50;;;;;;;12.51;84.12;99815.38;5047454;28;20666;-80
2020/12/22 11:01:28;;;;;;;1.60;1.50;;;;;;;12.61;82.48;99826.38;5045635;28;20267;-79
2020/12/22 11:04:14;;;;;;;1.70;1.60;;;;;;;12.57;83.24;99830.88;5046010;28;20235;-78
2020/12/22 11:07:36;;;;;;;1.50;1.40;;;;;;;12.57;82.85;99835.25;5044664;28;20206;-80
2020/12/22 11:10:13;;;;;;;2.50;1.10;;;;;;;12.63;81.51;99824.56;5042270;28;20224;-81
2020/12/22 11:12:47;;;;;;;1.40;1.30;;;;;;;12.59;81.34;99849.97;5044915;28;20212;-81
2020/12/22 11:15:13;;;;;;;1.20;1.13;;;;;;;12.51;81.91;99834.56;5048030;28;20581;-80
2020/12/22 11:17:51;;;;;;;1.30;0.90;;;;;;;12.46;80.88;99830.38;5044309;28;20252;-80
2020/12/22 11:20:18;;;;;;;1.40;1.00;;;;;;;12.46;80.86;99836.47;5046880;28;20200;-80
2020/12/22 11:22:58;;;;;;;1.33;0.80;;;;;;;12.42;81.00;99836.66;5054252;28;20205;-81
2020/12/22 11:25:24;;;;;;;1.17;0.90;;;;;;;12.49;80.76;99839.00;5048827;28;20610;-80
2020/12/22 11:28:43;;;;;;;1.80;0.80;;;;;;;12.50;81.09;99843.31;5045716;28;20210;-81
2020/12/22 11:31:10;;;;;;;0.80;0.80;;;;;;;12.53;80.65;99839.75;5035175;28;20228;-80
2020/12/22 11:33:37;;;;;;;0.80;0.80;;;;;;;12.51;81.14;99845.03;5040354;28;20225;-80
2020/12/22 11:36:03;;;;;;;0.63;0.60;;;;;;;12.53;80.95;99844.97;5044230;28;20276;-81
2020/12/22 11:38:29;;;;;;;1.17;0.97;;;;;;;12.47;81.30;99856.53;5047158;28;20212;-80
2020/12/22 11:40:55;;;;;;;1.87;1.70;;;;;;;12.48;81.72;99854.75;5049849;28;20779;-81
2020/12/22 11:43:21;;;;;;;1.00;0.90;;;;;;;12.48;81.07;99860.84;5047392;28;20705;-81
2020/12/22 11:45:47;;;;;;;0.97;0.87;;;;;;;12.46;81.90;99861.81;5048644;28;20201;-81
2020/12/22 11:48:40;;;;;;;1.17;1.07;;;;;;;12.43;81.86;99861.94;5045254;28;20213;-81
2020/12/22 11:51:06;;;;;;;1.53;1.00;;;;;;;12.47;82.06;99872.22;5047690;28;20231;-80